createdAt,value
2022-11-12T00:00:23.856Z,18.65
2022-11-12T00:03:09.971Z,19.27
2022-11-12T00:05:55.641Z,20.02
2022-11-12T00:08:41.783Z,19.63
2022-11-12T00:11:27.529Z,20.15
2022-11-12T00:14:13.555Z,20.33
2022-11-12T00:16:59.710Z,19.50
2022-11-12T00:19:45.953Z,20.77
2022-11-12T00:22:31.842Z,22.58
2022-11-12T00:25:17.905Z,21.52
2022-11-12T00:28:09.380Z,22.15
2022-11-12T00:30:55.246Z,22.35
2022-11-12T00:33:42.985Z,23.20
2022-11-12T00:39:15.297Z,22.33
2022-11-12T00:42:01.312Z,23.08
2022-11-12T00:44:49.797Z,21.42
2022-11-12T00:47:37.172Z,22.30
2022-11-12T00:50:23.845Z,22.95
2022-11-12T00:53:10.258Z,23.73
2022-11-12T00:56:07.153Z,24.63
2022-11-12T00:58:53.556Z,27.57
2022-11-12T01:01:41.581Z,26.58
2022-11-12T01:07:18.742Z,25.50
2022-11-12T01:10:05.662Z,24.23
2022-11-12T01:12:51.646Z,24.38
2022-11-12T01:15:42.021Z,24.60
2022-11-12T01:18:28.575Z,26.95
2022-11-12T01:21:15.207Z,26.58
2022-11-12T01:24:01.833Z,27.33
2022-11-12T01:26:48.396Z,29.20
2022-11-12T01:29:34.349Z,30.33
2022-11-12T01:32:20.437Z,33.30
2022-11-12T01:35:06.739Z,38.05
2022-11-12T01:37:52.890Z,39.10
2022-11-12T01:40:38.922Z,41.38
2022-11-12T01:43:24.740Z,40.35
2022-11-12T01:46:19.130Z,40.60
2022-11-12T01:49:11.204Z,37.28
2022-11-12T01:52:03.658Z,36.92
2022-11-12T01:54:53.590Z,35.33
2022-11-12T01:57:51.824Z,33.00
2022-11-12T02:00:38.479Z,34.05
2022-11-12T02:03:25.529Z,31.75
2022-11-12T02:06:14.144Z,32.05
2022-11-12T02:09:00.965Z,32.78
2022-11-12T02:11:47.093Z,31.05
2022-11-12T02:14:33.351Z,29.85
2022-11-12T02:17:19.291Z,30.60
2022-11-12T02:20:08.470Z,30.10
2022-11-12T02:22:54.607Z,29.60
2022-11-12T02:25:40.215Z,29.50
2022-11-12T02:28:27.481Z,27.17
2022-11-12T02:34:00.007Z,25.30
2022-11-12T02:36:46.247Z,25.33
2022-11-12T02:39:32.138Z,24.92
2022-11-12T02:42:17.971Z,24.80
2022-11-12T02:45:04.317Z,25.08
2022-11-12T02:47:50.653Z,22.05
2022-11-12T02:50:36.916Z,23.45
2022-11-12T02:53:22.984Z,23.50
2022-11-12T02:56:08.723Z,24.08
2022-11-12T02:58:54.682Z,23.23
2022-11-12T03:01:40.711Z,23.63
2022-11-12T03:04:26.660Z,23.25
2022-11-12T03:07:12.721Z,23.38
2022-11-12T03:09:58.563Z,22.80
2022-11-12T03:12:44.446Z,22.45
2022-11-12T03:15:30.995Z,22.58
2022-11-12T03:18:17.025Z,21.10
2022-11-12T03:21:02.940Z,22.48
2022-11-12T03:23:48.928Z,21.48
2022-11-12T03:26:36.110Z,22.63
2022-11-12T03:29:22.062Z,23.25
2022-11-12T03:32:07.818Z,23.23
2022-11-12T03:34:55.597Z,23.15
2022-11-12T03:37:41.978Z,23.13
2022-11-12T03:40:28.450Z,24.55
2022-11-12T03:43:14.694Z,24.92
2022-11-12T03:46:00.751Z,25.73
2022-11-12T03:48:47.111Z,26.60
2022-11-12T03:51:33.295Z,29.70
2022-11-12T03:54:20.158Z,29.25
2022-11-12T03:57:06.162Z,29.05
2022-11-12T03:59:51.982Z,27.90
2022-11-12T04:02:38.665Z,28.40
2022-11-12T04:05:43.779Z,27.95
2022-11-12T04:08:36.021Z,28.15
2022-11-12T04:11:21.857Z,28.70
2022-11-12T04:14:07.710Z,27.23
2022-11-12T04:17:12.662Z,26.85
2022-11-12T04:20:17.461Z,28.00
2022-11-12T04:23:03.925Z,26.80
2022-11-12T04:26:13.052Z,28.00
2022-11-12T04:29:17.796Z,27.95
2022-11-12T04:32:04.114Z,26.80
2022-11-12T04:34:50.207Z,28.80
2022-11-12T04:37:46.504Z,26.38
2022-11-12T04:40:50.916Z,27.10
2022-11-12T04:43:55.681Z,26.23
2022-11-12T04:46:41.878Z,28.13
2022-11-12T04:49:27.910Z,27.35
2022-11-12T04:52:14.317Z,28.30
2022-11-12T04:55:00.717Z,29.13
2022-11-12T04:57:46.834Z,28.52
2022-11-12T05:00:33.055Z,30.27
2022-11-12T05:03:19.313Z,35.22
2022-11-12T05:06:26.988Z,35.95
2022-11-12T05:09:12.849Z,35.75
2022-11-12T05:11:59.689Z,33.92
2022-11-12T05:14:45.557Z,35.72
2022-11-12T05:17:31.579Z,34.30
2022-11-12T05:20:18.215Z,36.78
2022-11-12T05:23:07.341Z,38.65
2022-11-12T05:25:54.156Z,37.60
2022-11-12T05:28:39.985Z,38.35
2022-11-12T05:31:25.835Z,38.97
2022-11-12T05:34:12.400Z,38.83
2022-11-12T05:36:58.609Z,40.65
2022-11-12T05:39:44.555Z,39.30
2022-11-12T05:42:30.665Z,39.40
2022-11-12T05:45:16.970Z,41.67
2022-11-12T05:48:03.012Z,41.83
2022-11-12T05:51:11.803Z,40.50
2022-11-12T05:53:58.501Z,40.10
2022-11-12T05:56:44.950Z,41.70
2022-11-12T05:59:30.932Z,41.85
2022-11-12T06:02:16.941Z,41.50
2022-11-12T06:05:03.157Z,41.83
2022-11-12T06:07:49.093Z,42.22
2022-11-12T06:10:35.453Z,40.17
2022-11-12T06:13:22.834Z,39.63
2022-11-12T06:16:09.231Z,39.90
2022-11-12T06:18:55.372Z,39.67
2022-11-12T06:21:41.331Z,37.78
2022-11-12T06:24:35.023Z,32.60
2022-11-12T06:27:23.955Z,33.53
2022-11-12T06:30:10.679Z,35.97
2022-11-12T06:32:57.122Z,33.23
2022-11-12T06:35:43.401Z,34.05
2022-11-12T06:38:30.665Z,34.25
2022-11-12T06:41:16.854Z,33.78
2022-11-12T06:44:04.886Z,35.00
2022-11-12T06:46:51.211Z,32.38
2022-11-12T06:49:37.390Z,30.60
2022-11-12T06:52:23.183Z,30.63
2022-11-12T06:55:09.270Z,28.05
2022-11-12T06:57:55.171Z,31.13
2022-11-12T07:00:41.566Z,30.02
2022-11-12T07:03:27.835Z,28.50
2022-11-12T07:06:19.036Z,28.80
2022-11-12T07:09:06.474Z,29.70
2022-11-12T07:11:54.046Z,30.63
2022-11-12T07:14:40.170Z,28.85
2022-11-12T07:17:26.185Z,30.20
2022-11-12T07:20:12.326Z,29.30
2022-11-12T07:23:01.722Z,28.98
2022-11-12T07:25:47.655Z,28.75
2022-11-12T07:28:33.816Z,29.77
2022-11-12T07:31:21.298Z,29.02
2022-11-12T07:34:07.630Z,28.33
2022-11-12T07:36:53.337Z,27.38
2022-11-12T07:39:41.975Z,28.73
2022-11-12T07:42:28.052Z,29.17
2022-11-12T07:45:14.135Z,27.67
2022-11-12T07:48:00.306Z,27.60
2022-11-12T07:50:46.447Z,27.00
2022-11-12T07:53:33.199Z,28.08
2022-11-12T07:56:22.050Z,25.77
2022-11-12T07:59:08.250Z,26.33
2022-11-12T08:01:54.480Z,27.67
2022-11-12T08:04:41.018Z,25.48
2022-11-12T08:07:27.173Z,26.75
2022-11-12T08:10:13.151Z,22.48
2022-11-12T08:13:02.034Z,25.15
2022-11-12T08:15:52.118Z,26.40
2022-11-12T08:18:42.834Z,25.05
2022-11-12T08:21:28.906Z,25.17
2022-11-12T08:24:15.031Z,24.20
2022-11-12T08:27:01.294Z,22.98
2022-11-12T08:29:49.995Z,22.20
2022-11-12T08:32:38.809Z,21.98
2022-11-12T08:35:27.736Z,22.20
2022-11-12T08:38:14.149Z,22.60
2022-11-12T08:41:04.834Z,20.98
2022-11-12T08:43:53.536Z,20.23
2022-11-12T08:46:39.491Z,20.35
2022-11-12T08:49:25.736Z,21.67
2022-11-12T08:52:19.246Z,21.10
2022-11-12T08:55:11.527Z,20.65
2022-11-12T08:58:04.044Z,21.80
2022-11-12T09:00:50.975Z,21.67
2022-11-12T09:03:37.359Z,21.48
2022-11-12T09:06:23.843Z,21.08
2022-11-12T09:09:14.353Z,20.92
2022-11-12T09:12:08.188Z,22.88
2022-11-12T09:15:30.762Z,20.88
2022-11-12T09:18:22.451Z,21.30
2022-11-12T09:21:13.694Z,21.83
2022-11-12T09:23:59.751Z,21.45
2022-11-12T09:26:54.776Z,21.13
2022-11-12T09:30:00.984Z,20.42
2022-11-12T09:33:01.692Z,21.25
2022-11-12T09:35:57.872Z,20.55
2022-11-12T09:38:43.776Z,20.20
2022-11-12T09:41:42.906Z,20.60
2022-11-12T09:44:35.578Z,21.10
2022-11-12T09:47:45.255Z,20.65
2022-11-12T09:53:58.832Z,19.92
2022-11-12T09:56:44.885Z,19.08
2022-11-12T09:59:34.401Z,18.95
2022-11-12T10:03:00.721Z,19.13
2022-11-12T10:06:10.078Z,17.02
2022-11-12T10:09:18.644Z,18.13
2022-11-12T10:15:58.559Z,16.33
2022-11-12T10:19:11.445Z,16.60
2022-11-12T10:22:25.734Z,16.40
2022-11-12T10:25:14.698Z,14.93
2022-11-12T10:28:11.666Z,14.38
2022-11-12T10:31:09.021Z,15.07
2022-11-12T10:34:11.773Z,15.00
2022-11-12T10:37:05.363Z,14.05
2022-11-12T10:40:20.998Z,14.73
2022-11-12T10:43:16.008Z,14.85
2022-11-12T10:46:24.286Z,15.00
2022-11-12T10:49:16.432Z,14.13
2022-11-12T10:52:02.233Z,14.25
2022-11-12T10:55:02.971Z,14.73
2022-11-12T10:58:09.408Z,14.23
2022-11-12T11:01:04.861Z,13.88
2022-11-12T11:03:56.084Z,14.80
2022-11-12T11:06:44.734Z,14.10
2022-11-12T11:09:32.498Z,14.48
2022-11-12T11:12:33.878Z,13.38
2022-11-12T11:15:25.378Z,14.98
2022-11-12T11:18:14.478Z,14.10
2022-11-12T11:21:24.466Z,15.15
2022-11-12T11:24:39.316Z,14.50
2022-11-12T11:27:33.953Z,14.63
2022-11-12T11:30:23.996Z,15.02
2022-11-12T11:33:44.795Z,13.90
2022-11-12T11:36:49.821Z,13.35
2022-11-12T11:40:06.677Z,13.48
2022-11-12T11:43:16.886Z,13.47
2022-11-12T11:46:24.436Z,13.10
2022-11-12T11:49:34.627Z,14.43
2022-11-12T11:52:26.601Z,13.40
2022-11-12T11:55:38.594Z,13.85
2022-11-12T11:59:03.539Z,13.52
2022-11-12T12:02:20.642Z,13.50
2022-11-12T12:05:26.618Z,13.60
2022-11-12T12:08:53.275Z,13.75
2022-11-12T12:11:57.499Z,13.07
2022-11-12T12:15:09.650Z,12.40
2022-11-12T12:18:17.012Z,12.93
2022-11-12T12:21:14.375Z,12.10
2022-11-12T12:24:15.270Z,12.93
2022-11-12T12:27:21.751Z,13.13
2022-11-12T12:30:21.928Z,13.05
2022-11-12T12:33:41.911Z,13.07
2022-11-12T12:36:42.065Z,12.18
2022-11-12T12:40:04.711Z,11.70
2022-11-12T12:43:51.562Z,11.55
2022-11-12T12:47:13.076Z,11.88
2022-11-12T12:50:20.140Z,10.50
2022-11-12T12:53:19.995Z,10.27
2022-11-12T12:56:32.637Z,11.10
2022-11-12T12:59:23.855Z,9.85
2022-11-12T13:02:21.975Z,9.55
2022-11-12T13:05:32.326Z,9.35
2022-11-12T13:11:50.138Z,9.50
2022-11-12T13:14:44.363Z,9.82
2022-11-12T13:17:44.956Z,8.85
2022-11-12T13:20:39.163Z,8.85
2022-11-12T13:24:10.205Z,8.65
2022-11-12T13:27:03.016Z,9.23
2022-11-12T13:29:51.407Z,9.27
2022-11-12T13:32:49.750Z,9.38
2022-11-12T13:35:39.521Z,9.57
2022-11-12T13:38:26.373Z,9.60
2022-11-12T13:41:42.220Z,9.90
2022-11-12T13:44:31.789Z,9.52
2022-11-12T13:47:22.050Z,8.70
2022-11-12T13:50:17.021Z,8.55
2022-11-12T13:53:13.277Z,7.97
2022-11-12T13:56:01.711Z,7.88
2022-11-12T13:59:00.915Z,7.68
2022-11-12T14:01:50.575Z,7.35
2022-11-12T14:04:36.378Z,7.53
2022-11-12T14:07:42.725Z,8.27
2022-11-12T14:10:34.269Z,7.47
2022-11-12T14:13:47.689Z,7.68
2022-11-12T14:17:04.719Z,7.50
2022-11-12T14:20:16.333Z,7.75
2022-11-12T14:23:24.209Z,7.82
2022-11-12T14:26:29.960Z,7.90
2022-11-12T14:29:22.399Z,8.60
2022-11-12T14:32:09.445Z,8.50
2022-11-12T14:34:58.675Z,9.17
2022-11-12T14:37:51.881Z,9.27
2022-11-12T14:41:26.095Z,9.05
2022-11-12T14:44:20.875Z,9.13
2022-11-12T14:47:10.111Z,9.70
2022-11-12T14:49:56.314Z,9.55
2022-11-12T14:52:47.171Z,10.15
2022-11-12T14:55:36.508Z,10.15
2022-11-12T14:58:24.667Z,11.02
2022-11-12T15:04:27.094Z,11.43
2022-11-12T15:07:28.397Z,12.68
2022-11-12T15:10:37.350Z,12.30
2022-11-12T15:13:27.632Z,12.30
2022-11-12T15:16:37.889Z,13.07
2022-11-12T15:19:44.544Z,12.95
2022-11-12T15:22:37.791Z,12.57
2022-11-12T15:25:39.456Z,13.50
2022-11-12T15:28:28.074Z,13.18
2022-11-12T15:31:51.136Z,12.55
2022-11-12T15:35:30.461Z,12.50
2022-11-12T15:38:28.511Z,14.50
2022-11-12T15:41:37.081Z,15.73
2022-11-12T15:44:23.397Z,15.52
2022-11-12T15:47:21.720Z,15.95
2022-11-12T15:50:21.826Z,16.17
2022-11-12T15:53:15.795Z,17.52
2022-11-12T15:56:25.496Z,18.08
2022-11-12T15:59:21.100Z,18.15
2022-11-12T16:02:29.215Z,19.10
2022-11-12T16:05:17.557Z,19.92
2022-11-12T16:08:03.833Z,20.70
2022-11-12T16:10:49.952Z,20.80
2022-11-12T16:13:36.618Z,20.90
2022-11-12T16:16:22.754Z,20.65
2022-11-12T16:19:17.902Z,22.50
2022-11-12T16:22:20.192Z,23.85
2022-11-12T16:25:10.208Z,24.85
2022-11-12T16:28:01.726Z,26.77
2022-11-12T16:30:50.663Z,27.35
2022-11-12T16:33:41.118Z,27.50
2022-11-12T16:39:13.702Z,28.92
2022-11-12T16:41:59.774Z,30.00
2022-11-12T16:44:45.834Z,30.88
2022-11-12T16:47:32.107Z,29.77
2022-11-12T16:50:22.258Z,33.75
2022-11-12T16:53:08.153Z,34.95
2022-11-12T16:55:53.868Z,37.97
2022-11-12T16:58:41.238Z,34.50
2022-11-12T17:01:32.068Z,37.13
2022-11-12T17:04:19.614Z,33.03
2022-11-12T17:07:06.534Z,31.58
2022-11-12T17:09:54.240Z,31.95
2022-11-12T17:12:43.187Z,32.35
2022-11-12T17:15:28.910Z,32.88
2022-11-12T17:18:22.088Z,32.50
2022-11-12T17:21:15.972Z,31.70
2022-11-12T17:24:01.907Z,33.38
2022-11-12T17:26:48.137Z,35.67
2022-11-12T17:29:34.027Z,34.03
2022-11-12T17:32:20.087Z,35.97
2022-11-12T17:35:06.850Z,37.75
2022-11-12T17:37:52.911Z,37.35
2022-11-12T17:40:41.215Z,35.53
2022-11-12T17:46:14.823Z,36.22
2022-11-12T17:49:05.367Z,41.45
2022-11-12T17:51:52.024Z,37.65
2022-11-12T17:54:38.422Z,46.08
2022-11-12T17:57:24.416Z,48.25
2022-11-12T18:00:13.760Z,43.42
2022-11-12T18:03:00.109Z,44.90
2022-11-12T18:05:46.613Z,43.90
2022-11-12T18:08:48.438Z,44.35
2022-11-12T18:12:26.504Z,45.50
2022-11-12T18:15:26.636Z,43.40
2022-11-12T18:22:22.780Z,44.53
2022-11-12T18:30:32.974Z,49.88
2022-11-12T18:45:56.858Z,45.63
2022-11-12T18:51:08.097Z,46.30
2022-11-12T18:58:07.492Z,41.97
2022-11-12T19:05:12.371Z,45.53
2022-11-12T19:12:22.609Z,45.35
2022-11-12T19:15:29.177Z,42.58
2022-11-12T19:18:17.731Z,46.15
2022-11-12T19:21:09.196Z,43.65
2022-11-12T19:24:07.499Z,43.78
2022-11-12T19:26:57.570Z,42.90
2022-11-12T19:30:16.152Z,43.17
2022-11-12T19:44:08.727Z,44.65
2022-11-12T19:48:14.146Z,45.70
2022-11-12T19:51:44.319Z,44.88
2022-11-12T19:59:34.161Z,46.47
2022-11-12T20:03:41.994Z,50.08
2022-11-12T20:18:25.999Z,50.30
2022-11-12T20:22:04.916Z,51.97
2022-11-12T20:24:22.539Z,48.95
2022-11-12T20:27:08.896Z,50.42
2022-11-12T20:29:57.476Z,47.15
2022-11-12T20:32:43.857Z,48.78
2022-11-12T20:35:30.271Z,51.80
2022-11-12T20:38:16.476Z,50.10
2022-11-12T20:41:04.604Z,58.55
2022-11-12T20:44:03.437Z,53.47
2022-11-12T20:46:49.712Z,48.47
2022-11-12T20:49:48.569Z,49.40
2022-11-12T20:52:44.431Z,48.83
2022-11-12T20:55:52.586Z,50.33
2022-11-12T21:02:34.096Z,50.35
2022-11-12T21:05:45.334Z,53.13
2022-11-12T21:08:56.460Z,53.85
2022-11-12T21:15:32.605Z,51.45
2022-11-12T21:18:37.837Z,54.08
2022-11-12T21:21:31.336Z,52.22
2022-11-12T21:24:20.022Z,56.05
2022-11-12T21:27:32.620Z,58.10
2022-11-12T21:30:23.434Z,55.10
2022-11-12T21:33:15.123Z,57.35
2022-11-12T21:36:20.351Z,57.05
2022-11-12T21:39:13.975Z,57.72
2022-11-12T21:42:10.557Z,56.28
2022-11-12T21:44:56.722Z,55.50
2022-11-12T21:51:19.515Z,51.95
2022-11-12T21:54:16.556Z,52.42
2022-11-12T21:57:49.632Z,52.33
2022-11-12T22:00:50.165Z,50.78
2022-11-12T22:03:48.793Z,51.92
2022-11-12T22:06:56.220Z,50.22
2022-11-12T22:11:22.471Z,52.13
2022-11-12T22:13:25.459Z,49.93
2022-11-12T22:16:23.674Z,49.50
2022-11-12T22:19:25.917Z,45.50
2022-11-12T22:22:14.296Z,46.55
2022-11-12T22:25:00.317Z,47.53
2022-11-12T22:27:46.679Z,45.33
2022-11-12T22:34:01.343Z,44.03
2022-11-12T22:36:47.820Z,42.47
2022-11-12T22:39:43.509Z,43.13
2022-11-12T22:42:32.032Z,41.97
2022-11-12T22:45:22.367Z,42.15
2022-11-12T22:48:13.307Z,42.33
2022-11-12T22:51:04.330Z,42.05
2022-11-12T22:53:55.463Z,41.33
2022-11-12T22:56:47.820Z,39.70
2022-11-12T22:59:34.134Z,42.83
2022-11-12T23:02:20.184Z,41.88
2022-11-12T23:05:06.735Z,42.35
2022-11-12T23:07:52.852Z,41.58
2022-11-12T23:10:44.458Z,41.05
2022-11-12T23:13:33.339Z,42.65
2022-11-12T23:16:26.393Z,42.42
2022-11-12T23:19:12.206Z,41.15
2022-11-12T23:21:58.163Z,40.58
2022-11-12T23:24:44.046Z,41.08
2022-11-12T23:27:30.371Z,41.83
2022-11-12T23:30:16.803Z,43.00
2022-11-12T23:33:03.111Z,41.92
2022-11-12T23:35:49.535Z,42.80
2022-11-12T23:38:37.675Z,40.72
2022-11-12T23:41:26.235Z,40.05
2022-11-12T23:44:12.499Z,39.10
2022-11-12T23:46:58.888Z,41.03
2022-11-12T23:49:45.046Z,41.88
2022-11-12T23:52:31.131Z,40.47
2022-11-12T23:55:17.015Z,41.63
2022-11-12T23:58:03.380Z,40.92
